sensor_id;sensor_type;location;lat;lon;timestamp;P1;durP1;ratioP1;P2;durP2;ratioP2
6791;SDS011;3433;48.730;9.108;2022-07-29T00:01:58;9.43;;;7.10;;
6791;SDS011;3433;48.730;9.108;2022-07-29T00:04:45;7.77;;;7.17;;
6791;SDS011;3433;48.730;9.108;2022-07-29T00:07:32;8.07;;;7.27;;
6791;SDS011;3433;48.730;9.108;2022-07-29T00:10:19;7.90;;;7.20;;
6791;SDS011;3433;48.730;9.108;2022-07-29T00:13:07;8.20;;;7.40;;
6791;SDS011;3433;48.730;9.108;2022-07-29T00:15:56;7.90;;;7.20;;
6791;SDS011;3433;48.730;9.108;2022-07-29T00:18:43;7.63;;;6.93;;
6791;SDS011;3433;48.730;9.108;2022-07-29T00:21:30;7.20;;;6.50;;
6791;SDS011;3433;48.730;9.108;2022-07-29T00:24:17;7.67;;;6.97;;
6791;SDS011;3433;48.730;9.108;2022-07-29T00:27:05;7.80;;;6.57;;
6791;SDS011;3433;48.730;9.108;2022-07-29T00:29:52;6.60;;;5.90;;
6791;SDS011;3433;48.730;9.108;2022-07-29T00:32:41;8.60;;;6.67;;
6791;SDS011;3433;48.730;9.108;2022-07-29T00:35:28;8.27;;;7.17;;
6791;SDS011;3433;48.730;9.108;2022-07-29T00:38:31;7.07;;;6.47;;
6791;SDS011;3433;48.730;9.108;2022-07-29T00:41:18;7.43;;;6.37;;
6791;SDS011;3433;48.730;9.108;2022-07-29T00:44:06;7.73;;;7.13;;
6791;SDS011;3433;48.730;9.108;2022-07-29T00:46:53;7.17;;;6.40;;
6791;SDS011;3433;48.730;9.108;2022-07-29T00:49:41;6.80;;;6.10;;
6791;SDS011;3433;48.730;9.108;2022-07-29T00:52:29;6.87;;;6.13;;
6791;SDS011;3433;48.730;9.108;2022-07-29T00:55:16;7.60;;;6.70;;
6791;SDS011;3433;48.730;9.108;2022-07-29T00:58:04;7.00;;;6.30;;
6791;SDS011;3433;48.730;9.108;2022-07-29T01:00:52;6.73;;;6.03;;
6791;SDS011;3433;48.730;9.108;2022-07-29T01:03:40;7.00;;;6.40;;
6791;SDS011;3433;48.730;9.108;2022-07-29T01:06:28;7.20;;;6.50;;
6791;SDS011;3433;48.730;9.108;2022-07-29T01:09:16;7.17;;;6.47;;
6791;SDS011;3433;48.730;9.108;2022-07-29T01:12:05;9.40;;;6.30;;
6791;SDS011;3433;48.730;9.108;2022-07-29T01:14:53;6.10;;;5.60;;
6791;SDS011;3433;48.730;9.108;2022-07-29T01:17:43;6.73;;;6.00;;
6791;SDS011;3433;48.730;9.108;2022-07-29T01:20:34;6.83;;;6.10;;
6791;SDS011;3433;48.730;9.108;2022-07-29T01:23:43;7.20;;;6.17;;
6791;SDS011;3433;48.730;9.108;2022-07-29T01:26:41;5.43;;;4.90;;
6791;SDS011;3433;48.730;9.108;2022-07-29T01:29:33;5.07;;;4.67;;
6791;SDS011;3433;48.730;9.108;2022-07-29T01:32:26;6.87;;;5.23;;
6791;SDS011;3433;48.730;9.108;2022-07-29T01:35:17;6.00;;;4.97;;
6791;SDS011;3433;48.730;9.108;2022-07-29T01:38:08;7.70;;;5.73;;
6791;SDS011;3433;48.730;9.108;2022-07-29T01:41:01;5.47;;;5.03;;
6791;SDS011;3433;48.730;9.108;2022-07-29T01:43:53;5.10;;;4.60;;
6791;SDS011;3433;48.730;9.108;2022-07-29T01:46:49;5.70;;;5.20;;
6791;SDS011;3433;48.730;9.108;2022-07-29T01:49:41;4.77;;;4.20;;
6791;SDS011;3433;48.730;9.108;2022-07-29T01:52:37;5.80;;;5.03;;
6791;SDS011;3433;48.730;9.108;2022-07-29T01:55:29;4.70;;;4.30;;
6791;SDS011;3433;48.730;9.108;2022-07-29T01:58:20;5.30;;;4.83;;
6791;SDS011;3433;48.730;9.108;2022-07-29T02:01:09;6.20;;;4.87;;
6791;SDS011;3433;48.730;9.108;2022-07-29T02:04:00;5.57;;;4.77;;
6791;SDS011;3433;48.730;9.108;2022-07-29T02:06:50;5.10;;;4.70;;
6791;SDS011;3433;48.730;9.108;2022-07-29T02:09:40;6.50;;;5.00;;
6791;SDS011;3433;48.730;9.108;2022-07-29T02:12:29;5.50;;;5.00;;
6791;SDS011;3433;48.730;9.108;2022-07-29T02:15:18;5.67;;;4.87;;
6791;SDS011;3433;48.730;9.108;2022-07-29T02:18:07;5.77;;;5.23;;
6791;SDS011;3433;48.730;9.108;2022-07-29T02:20:59;4.60;;;4.20;;
6791;SDS011;3433;48.730;9.108;2022-07-29T02:23:49;5.63;;;4.70;;
6791;SDS011;3433;48.730;9.108;2022-07-29T02:26:38;5.43;;;4.97;;
6791;SDS011;3433;48.730;9.108;2022-07-29T02:29:28;4.87;;;4.47;;
6791;SDS011;3433;48.730;9.108;2022-07-29T02:32:16;4.63;;;4.33;;
6791;SDS011;3433;48.730;9.108;2022-07-29T02:35:06;5.10;;;4.70;;
6791;SDS011;3433;48.730;9.108;2022-07-29T02:37:56;6.87;;;5.13;;
6791;SDS011;3433;48.730;9.108;2022-07-29T02:41:01;5.00;;;4.60;;
6791;SDS011;3433;48.730;9.108;2022-07-29T02:43:53;5.70;;;5.20;;
6791;SDS011;3433;48.730;9.108;2022-07-29T02:46:45;5.30;;;4.80;;
6791;SDS011;3433;48.730;9.108;2022-07-29T02:49:36;5.67;;;5.17;;
6791;SDS011;3433;48.730;9.108;2022-07-29T02:52:26;5.37;;;4.97;;
6791;SDS011;3433;48.730;9.108;2022-07-29T02:55:18;5.50;;;5.00;;
6791;SDS011;3433;48.730;9.108;2022-07-29T02:58:13;5.23;;;4.83;;
6791;SDS011;3433;48.730;9.108;2022-07-29T03:01:08;5.80;;;5.30;;
6791;SDS011;3433;48.730;9.108;2022-07-29T03:04:00;5.33;;;4.83;;
6791;SDS011;3433;48.730;9.108;2022-07-29T03:06:50;4.63;;;4.23;;
6791;SDS011;3433;48.730;9.108;2022-07-29T03:09:40;5.27;;;4.87;;
6791;SDS011;3433;48.730;9.108;2022-07-29T03:12:29;5.00;;;4.00;;
6791;SDS011;3433;48.730;9.108;2022-07-29T03:15:17;5.37;;;4.87;;
6791;SDS011;3433;48.730;9.108;2022-07-29T03:18:05;5.50;;;5.00;;
6791;SDS011;3433;48.730;9.108;2022-07-29T03:20:53;5.30;;;4.80;;
6791;SDS011;3433;48.730;9.108;2022-07-29T03:23:43;5.00;;;4.60;;
6791;SDS011;3433;48.730;9.108;2022-07-29T03:26:31;6.70;;;5.27;;
6791;SDS011;3433;48.730;9.108;2022-07-29T03:29:19;5.03;;;4.63;;
6791;SDS011;3433;48.730;9.108;2022-07-29T03:32:07;5.07;;;4.67;;
6791;SDS011;3433;48.730;9.108;2022-07-29T03:34:54;5.50;;;4.80;;
6791;SDS011;3433;48.730;9.108;2022-07-29T03:37:41;5.53;;;3.97;;
6791;SDS011;3433;48.730;9.108;2022-07-29T03:40:30;5.57;;;5.07;;
6791;SDS011;3433;48.730;9.108;2022-07-29T03:43:20;7.17;;;4.90;;
6791;SDS011;3433;48.730;9.108;2022-07-29T03:46:10;5.23;;;4.83;;
6791;SDS011;3433;48.730;9.108;2022-07-29T03:49:00;4.80;;;4.30;;
6791;SDS011;3433;48.730;9.108;2022-07-29T03:51:49;6.00;;;4.57;;
6791;SDS011;3433;48.730;9.108;2022-07-29T03:54:36;5.30;;;4.80;;
6791;SDS011;3433;48.730;9.108;2022-07-29T03:57:25;4.70;;;4.30;;
6791;SDS011;3433;48.730;9.108;2022-07-29T04:00:15;4.43;;;4.13;;
6791;SDS011;3433;48.730;9.108;2022-07-29T04:03:04;4.70;;;4.40;;
6791;SDS011;3433;48.730;9.108;2022-07-29T04:05:58;4.67;;;4.37;;
6791;SDS011;3433;48.730;9.108;2022-07-29T04:08:47;5.30;;;4.90;;
6791;SDS011;3433;48.730;9.108;2022-07-29T04:11:34;7.97;;;4.60;;
6791;SDS011;3433;48.730;9.108;2022-07-29T04:14:22;4.80;;;4.40;;
6791;SDS011;3433;48.730;9.108;2022-07-29T04:17:09;5.30;;;4.80;;
6791;SDS011;3433;48.730;9.108;2022-07-29T04:19:58;5.40;;;4.80;;
6791;SDS011;3433;48.730;9.108;2022-07-29T04:22:45;5.07;;;4.67;;
6791;SDS011;3433;48.730;9.108;2022-07-29T04:25:33;5.07;;;4.63;;
6791;SDS011;3433;48.730;9.108;2022-07-29T04:28:23;5.30;;;4.00;;
6791;SDS011;3433;48.730;9.108;2022-07-29T04:31:11;3.90;;;3.60;;
6791;SDS011;3433;48.730;9.108;2022-07-29T04:33:59;4.27;;;3.87;;
6791;SDS011;3433;48.730;9.108;2022-07-29T04:36:47;4.57;;;4.17;;
6791;SDS011;3433;48.730;9.108;2022-07-29T04:39:35;4.30;;;3.90;;
6791;SDS011;3433;48.730;9.108;2022-07-29T04:42:22;3.97;;;3.67;;
6791;SDS011;3433;48.730;9.108;2022-07-29T04:45:09;5.20;;;4.00;;
6791;SDS011;3433;48.730;9.108;2022-07-29T04:47:56;5.30;;;4.00;;
6791;SDS011;3433;48.730;9.108;2022-07-29T04:50:44;3.97;;;3.60;;
6791;SDS011;3433;48.730;9.108;2022-07-29T04:53:32;5.27;;;4.77;;
6791;SDS011;3433;48.730;9.108;2022-07-29T04:56:20;5.83;;;3.47;;
6791;SDS011;3433;48.730;9.108;2022-07-29T04:59:07;7.50;;;3.90;;
6791;SDS011;3433;48.730;9.108;2022-07-29T05:01:54;3.63;;;3.33;;
6791;SDS011;3433;48.730;9.108;2022-07-29T05:04:41;3.67;;;3.30;;
6791;SDS011;3433;48.730;9.108;2022-07-29T05:07:28;3.47;;;3.17;;
6791;SDS011;3433;48.730;9.108;2022-07-29T05:10:17;2.93;;;2.73;;
6791;SDS011;3433;48.730;9.108;2022-07-29T05:13:04;3.40;;;3.20;;
6791;SDS011;3433;48.730;9.108;2022-07-29T05:15:52;4.20;;;3.80;;
6791;SDS011;3433;48.730;9.108;2022-07-29T05:18:40;3.37;;;3.07;;
6791;SDS011;3433;48.730;9.108;2022-07-29T05:21:27;4.23;;;3.87;;
6791;SDS011;3433;48.730;9.108;2022-07-29T05:24:14;4.43;;;4.03;;
6791;SDS011;3433;48.730;9.108;2022-07-29T05:30:32;4.67;;;4.27;;
6791;SDS011;3433;48.730;9.108;2022-07-29T05:33:21;5.77;;;3.30;;
6791;SDS011;3433;48.730;9.108;2022-07-29T05:36:09;4.00;;;3.70;;
6791;SDS011;3433;48.730;9.108;2022-07-29T05:38:57;4.30;;;4.00;;
6791;SDS011;3433;48.730;9.108;2022-07-29T05:41:44;4.20;;;3.80;;
6791;SDS011;3433;48.730;9.108;2022-07-29T05:44:36;3.93;;;3.63;;
6791;SDS011;3433;48.730;9.108;2022-07-29T05:47:24;4.43;;;3.70;;
6791;SDS011;3433;48.730;9.108;2022-07-29T05:50:20;4.47;;;4.03;;
6791;SDS011;3433;48.730;9.108;2022-07-29T05:53:23;3.90;;;3.60;;
6791;SDS011;3433;48.730;9.108;2022-07-29T05:56:19;4.97;;;3.80;;
6791;SDS011;3433;48.730;9.108;2022-07-29T06:05:49;4.30;;;4.00;;
6791;SDS011;3433;48.730;9.108;2022-07-29T06:08:44;4.13;;;3.73;;
6791;SDS011;3433;48.730;9.108;2022-07-29T06:11:31;5.63;;;4.80;;
6791;SDS011;3433;48.730;9.108;2022-07-29T06:14:18;11.00;;;4.33;;
6791;SDS011;3433;48.730;9.108;2022-07-29T06:17:05;5.30;;;4.90;;
6791;SDS011;3433;48.730;9.108;2022-07-29T06:19:54;4.90;;;4.53;;
6791;SDS011;3433;48.730;9.108;2022-07-29T06:23:12;4.40;;;4.00;;
6791;SDS011;3433;48.730;9.108;2022-07-29T06:25:50;6.23;;;4.17;;
6791;SDS011;3433;48.730;9.108;2022-07-29T06:28:37;5.03;;;4.63;;
6791;SDS011;3433;48.730;9.108;2022-07-29T06:31:24;4.40;;;4.00;;
6791;SDS011;3433;48.730;9.108;2022-07-29T06:34:11;4.90;;;4.50;;
6791;SDS011;3433;48.730;9.108;2022-07-29T06:37:00;4.33;;;3.90;;
6791;SDS011;3433;48.730;9.108;2022-07-29T06:39:48;4.97;;;4.57;;
6791;SDS011;3433;48.730;9.108;2022-07-29T06:42:56;5.10;;;4.70;;
6791;SDS011;3433;48.730;9.108;2022-07-29T06:45:43;5.33;;;4.83;;
6791;SDS011;3433;48.730;9.108;2022-07-29T06:48:31;5.13;;;4.70;;
6791;SDS011;3433;48.730;9.108;2022-07-29T06:51:18;5.00;;;4.60;;
6791;SDS011;3433;48.730;9.108;2022-07-29T06:54:07;5.00;;;4.60;;
6791;SDS011;3433;48.730;9.108;2022-07-29T06:56:54;5.57;;;5.07;;
6791;SDS011;3433;48.730;9.108;2022-07-29T06:59:42;5.47;;;4.97;;
6791;SDS011;3433;48.730;9.108;2022-07-29T07:02:32;5.13;;;4.63;;
6791;SDS011;3433;48.730;9.108;2022-07-29T07:05:22;5.50;;;4.67;;
6791;SDS011;3433;48.730;9.108;2022-07-29T07:08:10;4.87;;;4.40;;
6791;SDS011;3433;48.730;9.108;2022-07-29T07:10:59;5.03;;;4.63;;
6791;SDS011;3433;48.730;9.108;2022-07-29T07:13:46;4.77;;;4.47;;
6791;SDS011;3433;48.730;9.108;2022-07-29T07:16:33;5.37;;;4.97;;
6791;SDS011;3433;48.730;9.108;2022-07-29T07:19:21;9.60;;;4.40;;
6791;SDS011;3433;48.730;9.108;2022-07-29T07:22:08;8.00;;;5.33;;
6791;SDS011;3433;48.730;9.108;2022-07-29T07:24:55;5.57;;;5.07;;
6791;SDS011;3433;48.730;9.108;2022-07-29T07:27:44;5.90;;;5.20;;
6791;SDS011;3433;48.730;9.108;2022-07-29T07:30:31;5.70;;;5.30;;
6791;SDS011;3433;48.730;9.108;2022-07-29T07:33:19;6.40;;;5.40;;
6791;SDS011;3433;48.730;9.108;2022-07-29T07:36:06;5.80;;;5.30;;
6791;SDS011;3433;48.730;9.108;2022-07-29T07:38:53;6.00;;;5.50;;
6791;SDS011;3433;48.730;9.108;2022-07-29T07:41:41;5.47;;;5.07;;
6791;SDS011;3433;48.730;9.108;2022-07-29T07:44:29;5.50;;;5.00;;
6791;SDS011;3433;48.730;9.108;2022-07-29T07:47:17;6.17;;;5.07;;
6791;SDS011;3433;48.730;9.108;2022-07-29T07:50:05;5.77;;;5.27;;
6791;SDS011;3433;48.730;9.108;2022-07-29T07:52:55;6.93;;;5.53;;
6791;SDS011;3433;48.730;9.108;2022-07-29T07:55:44;5.77;;;5.20;;
6791;SDS011;3433;48.730;9.108;2022-07-29T07:58:31;6.37;;;5.80;;
6791;SDS011;3433;48.730;9.108;2022-07-29T08:05:18;6.77;;;6.17;;
6791;SDS011;3433;48.730;9.108;2022-07-29T08:08:11;5.73;;;5.30;;
6791;SDS011;3433;48.730;9.108;2022-07-29T08:11:09;6.00;;;5.40;;
6791;SDS011;3433;48.730;9.108;2022-07-29T08:13:59;5.80;;;4.80;;
6791;SDS011;3433;48.730;9.108;2022-07-29T08:16:47;7.60;;;5.83;;
6791;SDS011;3433;48.730;9.108;2022-07-29T08:19:34;7.47;;;5.20;;
6791;SDS011;3433;48.730;9.108;2022-07-29T08:22:24;6.10;;;5.37;;
6791;SDS011;3433;48.730;9.108;2022-07-29T08:25:11;8.23;;;5.60;;
6791;SDS011;3433;48.730;9.108;2022-07-29T08:28:04;5.90;;;5.40;;
6791;SDS011;3433;48.730;9.108;2022-07-29T08:30:54;5.90;;;5.33;;
6791;SDS011;3433;48.730;9.108;2022-07-29T08:33:41;6.03;;;5.60;;
6791;SDS011;3433;48.730;9.108;2022-07-29T08:36:29;5.67;;;5.00;;
6791;SDS011;3433;48.730;9.108;2022-07-29T08:39:17;5.47;;;4.97;;
6791;SDS011;3433;48.730;9.108;2022-07-29T08:42:05;5.80;;;5.10;;
6791;SDS011;3433;48.730;9.108;2022-07-29T08:44:53;6.77;;;5.47;;
6791;SDS011;3433;48.730;9.108;2022-07-29T08:47:41;5.47;;;4.97;;
6791;SDS011;3433;48.730;9.108;2022-07-29T08:50:30;6.13;;;5.50;;
6791;SDS011;3433;48.730;9.108;2022-07-29T08:53:18;5.60;;;5.10;;
6791;SDS011;3433;48.730;9.108;2022-07-29T08:56:07;5.80;;;5.20;;
6791;SDS011;3433;48.730;9.108;2022-07-29T08:58:57;6.13;;;5.53;;
6791;SDS011;3433;48.730;9.108;2022-07-29T09:01:45;6.30;;;5.60;;
6791;SDS011;3433;48.730;9.108;2022-07-29T09:04:34;11.13;;;5.53;;
6791;SDS011;3433;48.730;9.108;2022-07-29T09:07:23;8.07;;;5.90;;
6791;SDS011;3433;48.730;9.108;2022-07-29T09:10:10;6.70;;;5.57;;
6791;SDS011;3433;48.730;9.108;2022-07-29T09:13:09;10.00;;;5.33;;
6791;SDS011;3433;48.730;9.108;2022-07-29T09:16:03;5.27;;;4.77;;
6791;SDS011;3433;48.730;9.108;2022-07-29T09:19:00;5.70;;;5.00;;
6791;SDS011;3433;48.730;9.108;2022-07-29T09:22:27;7.13;;;4.90;;
6791;SDS011;3433;48.730;9.108;2022-07-29T09:25:31;6.17;;;5.57;;
6791;SDS011;3433;48.730;9.108;2022-07-29T09:28:21;9.03;;;5.73;;
6791;SDS011;3433;48.730;9.108;2022-07-29T09:31:09;6.00;;;5.50;;
6791;SDS011;3433;48.730;9.108;2022-07-29T09:33:57;9.27;;;6.10;;
6791;SDS011;3433;48.730;9.108;2022-07-29T09:36:46;6.03;;;4.90;;
6791;SDS011;3433;48.730;9.108;2022-07-29T09:39:35;6.57;;;5.50;;
6791;SDS011;3433;48.730;9.108;2022-07-29T09:42:29;6.70;;;5.50;;
6791;SDS011;3433;48.730;9.108;2022-07-29T09:45:30;6.20;;;5.80;;
6791;SDS011;3433;48.730;9.108;2022-07-29T09:48:19;6.17;;;5.53;;
6791;SDS011;3433;48.730;9.108;2022-07-29T09:51:16;6.10;;;5.60;;
6791;SDS011;3433;48.730;9.108;2022-07-29T09:54:20;6.20;;;5.67;;
6791;SDS011;3433;48.730;9.108;2022-07-29T09:57:09;7.13;;;5.20;;
6791;SDS011;3433;48.730;9.108;2022-07-29T10:00:09;7.30;;;5.50;;
6791;SDS011;3433;48.730;9.108;2022-07-29T10:02:59;6.57;;;5.60;;
6791;SDS011;3433;48.730;9.108;2022-07-29T10:06:03;7.10;;;6.50;;
6791;SDS011;3433;48.730;9.108;2022-07-29T10:08:51;5.67;;;5.27;;
6791;SDS011;3433;48.730;9.108;2022-07-29T10:11:38;6.20;;;5.70;;
6791;SDS011;3433;48.730;9.108;2022-07-29T10:14:26;5.87;;;5.40;;
6791;SDS011;3433;48.730;9.108;2022-07-29T10:17:13;7.43;;;5.67;;
6791;SDS011;3433;48.730;9.108;2022-07-29T10:20:03;5.50;;;4.97;;
6791;SDS011;3433;48.730;9.108;2022-07-29T10:22:51;11.77;;;6.63;;
6791;SDS011;3433;48.730;9.108;2022-07-29T10:25:39;8.73;;;6.60;;
6791;SDS011;3433;48.730;9.108;2022-07-29T10:28:27;8.93;;;6.07;;
6791;SDS011;3433;48.730;9.108;2022-07-29T10:31:15;7.77;;;7.07;;
6791;SDS011;3433;48.730;9.108;2022-07-29T10:34:12;6.85;;;6.18;;
6791;SDS011;3433;48.730;9.108;2022-07-29T10:37:09;7.80;;;7.00;;
6791;SDS011;3433;48.730;9.108;2022-07-29T10:40:07;7.40;;;6.60;;
6791;SDS011;3433;48.730;9.108;2022-07-29T10:43:22;7.33;;;5.87;;
6791;SDS011;3433;48.730;9.108;2022-07-29T10:46:13;7.10;;;6.40;;
6791;SDS011;3433;48.730;9.108;2022-07-29T10:49:05;7.53;;;6.83;;
6791;SDS011;3433;48.730;9.108;2022-07-29T10:51:59;9.83;;;8.10;;
6791;SDS011;3433;48.730;9.108;2022-07-29T10:54:49;13.83;;;7.30;;
6791;SDS011;3433;48.730;9.108;2022-07-29T10:57:37;16.53;;;8.13;;
6791;SDS011;3433;48.730;9.108;2022-07-29T11:00:31;14.10;;;7.90;;
6791;SDS011;3433;48.730;9.108;2022-07-29T11:13:09;8.60;;;5.50;;
6791;SDS011;3433;48.730;9.108;2022-07-29T11:15:57;9.60;;;6.50;;
6791;SDS011;3433;48.730;9.108;2022-07-29T11:22:08;7.90;;;6.60;;
6791;SDS011;3433;48.730;9.108;2022-07-29T11:25:12;9.13;;;6.13;;
6791;SDS011;3433;48.730;9.108;2022-07-29T11:28:08;9.87;;;7.03;;
6791;SDS011;3433;48.730;9.108;2022-07-29T11:31:00;8.63;;;6.43;;
6791;SDS011;3433;48.730;9.108;2022-07-29T11:33:49;7.67;;;6.87;;
6791;SDS011;3433;48.730;9.108;2022-07-29T11:36:36;10.77;;;7.00;;
6791;SDS011;3433;48.730;9.108;2022-07-29T11:43:08;9.90;;;8.03;;
6791;SDS011;3433;48.730;9.108;2022-07-29T11:45:56;8.57;;;7.57;;
6791;SDS011;3433;48.730;9.108;2022-07-29T11:48:43;13.93;;;7.20;;
6791;SDS011;3433;48.730;9.108;2022-07-29T11:51:31;8.57;;;6.60;;
6791;SDS011;3433;48.730;9.108;2022-07-29T11:54:21;7.30;;;6.60;;
6791;SDS011;3433;48.730;9.108;2022-07-29T11:57:11;7.63;;;6.70;;
6791;SDS011;3433;48.730;9.108;2022-07-29T12:00:01;8.70;;;7.00;;
6791;SDS011;3433;48.730;9.108;2022-07-29T12:02:49;7.10;;;6.40;;
6791;SDS011;3433;48.730;9.108;2022-07-29T12:05:38;11.00;;;8.13;;
6791;SDS011;3433;48.730;9.108;2022-07-29T12:08:26;9.33;;;7.87;;
6791;SDS011;3433;48.730;9.108;2022-07-29T12:11:17;7.10;;;6.40;;
6791;SDS011;3433;48.730;9.108;2022-07-29T12:14:05;10.03;;;8.10;;
6791;SDS011;3433;48.730;9.108;2022-07-29T12:16:54;9.83;;;7.50;;
6791;SDS011;3433;48.730;9.108;2022-07-29T12:19:42;9.80;;;7.77;;
6791;SDS011;3433;48.730;9.108;2022-07-29T12:22:31;8.93;;;8.03;;
6791;SDS011;3433;48.730;9.108;2022-07-29T12:25:19;9.27;;;8.00;;
6791;SDS011;3433;48.730;9.108;2022-07-29T12:28:08;10.17;;;8.13;;
6791;SDS011;3433;48.730;9.108;2022-07-29T12:30:57;9.93;;;7.60;;
6791;SDS011;3433;48.730;9.108;2022-07-29T12:33:46;8.33;;;7.47;;
6791;SDS011;3433;48.730;9.108;2022-07-29T12:36:40;9.77;;;7.90;;
6791;SDS011;3433;48.730;9.108;2022-07-29T12:39:28;7.27;;;6.50;;
6791;SDS011;3433;48.730;9.108;2022-07-29T12:42:15;9.00;;;7.43;;
6791;SDS011;3433;48.730;9.108;2022-07-29T12:45:03;10.40;;;7.93;;
6791;SDS011;3433;48.730;9.108;2022-07-29T12:47:52;10.03;;;8.17;;
6791;SDS011;3433;48.730;9.108;2022-07-29T12:50:56;8.93;;;8.03;;
6791;SDS011;3433;48.730;9.108;2022-07-29T12:56:57;9.00;;;7.70;;
6791;SDS011;3433;48.730;9.108;2022-07-29T12:59:57;7.83;;;6.80;;
6791;SDS011;3433;48.730;9.108;2022-07-29T13:02:55;7.73;;;6.97;;
6791;SDS011;3433;48.730;9.108;2022-07-29T13:05:44;8.40;;;7.47;;
6791;SDS011;3433;48.730;9.108;2022-07-29T13:08:33;7.00;;;6.30;;
6791;SDS011;3433;48.730;9.108;2022-07-29T13:11:29;7.70;;;6.87;;
6791;SDS011;3433;48.730;9.108;2022-07-29T13:14:29;7.00;;;6.40;;
6791;SDS011;3433;48.730;9.108;2022-07-29T13:17:19;6.40;;;5.90;;
6791;SDS011;3433;48.730;9.108;2022-07-29T13:20:09;7.73;;;6.30;;
6791;SDS011;3433;48.730;9.108;2022-07-29T13:23:00;7.80;;;7.00;;
6791;SDS011;3433;48.730;9.108;2022-07-29T13:25:48;8.60;;;5.87;;
6791;SDS011;3433;48.730;9.108;2022-07-29T13:28:36;6.70;;;6.20;;
6791;SDS011;3433;48.730;9.108;2022-07-29T13:31:23;7.30;;;6.43;;
6791;SDS011;3433;48.730;9.108;2022-07-29T13:34:10;7.33;;;6.63;;
6791;SDS011;3433;48.730;9.108;2022-07-29T13:36:58;7.20;;;6.17;;
6791;SDS011;3433;48.730;9.108;2022-07-29T13:39:45;6.23;;;5.70;;
6791;SDS011;3433;48.730;9.108;2022-07-29T13:42:34;8.03;;;7.23;;
6791;SDS011;3433;48.730;9.108;2022-07-29T13:45:21;6.43;;;5.83;;
6791;SDS011;3433;48.730;9.108;2022-07-29T13:48:09;10.13;;;9.00;;
6791;SDS011;3433;48.730;9.108;2022-07-29T13:50:56;8.97;;;7.27;;
6791;SDS011;3433;48.730;9.108;2022-07-29T13:53:43;7.33;;;6.63;;
6791;SDS011;3433;48.730;9.108;2022-07-29T13:56:31;7.27;;;6.57;;
6791;SDS011;3433;48.730;9.108;2022-07-29T13:59:19;9.93;;;8.87;;
6791;SDS011;3433;48.730;9.108;2022-07-29T14:02:07;9.07;;;8.17;;
6791;SDS011;3433;48.730;9.108;2022-07-29T14:04:55;8.83;;;7.93;;
6791;SDS011;3433;48.730;9.108;2022-07-29T14:07:42;8.20;;;7.50;;
6791;SDS011;3433;48.730;9.108;2022-07-29T14:10:29;8.53;;;7.60;;
6791;SDS011;3433;48.730;9.108;2022-07-29T14:13:17;10.20;;;9.00;;
6791;SDS011;3433;48.730;9.108;2022-07-29T14:16:05;8.80;;;8.00;;
6791;SDS011;3433;48.730;9.108;2022-07-29T14:18:53;9.30;;;8.17;;
6791;SDS011;3433;48.730;9.108;2022-07-29T14:21:40;9.20;;;7.43;;
6791;SDS011;3433;48.730;9.108;2022-07-29T14:24:27;9.20;;;8.27;;
6791;SDS011;3433;48.730;9.108;2022-07-29T14:27:15;9.50;;;8.50;;
6791;SDS011;3433;48.730;9.108;2022-07-29T14:30:02;10.00;;;9.10;;
6791;SDS011;3433;48.730;9.108;2022-07-29T14:32:50;7.93;;;7.23;;
6791;SDS011;3433;48.730;9.108;2022-07-29T14:35:38;10.20;;;8.23;;
6791;SDS011;3433;48.730;9.108;2022-07-29T14:38:25;9.17;;;8.00;;
6791;SDS011;3433;48.730;9.108;2022-07-29T14:41:12;14.53;;;10.30;;
6791;SDS011;3433;48.730;9.108;2022-07-29T14:43:59;8.30;;;7.60;;
6791;SDS011;3433;48.730;9.108;2022-07-29T14:46:47;9.63;;;8.43;;
6791;SDS011;3433;48.730;9.108;2022-07-29T14:49:36;8.53;;;7.90;;
6791;SDS011;3433;48.730;9.108;2022-07-29T14:52:23;9.17;;;8.30;;
6791;SDS011;3433;48.730;9.108;2022-07-29T14:55:11;9.40;;;8.40;;
6791;SDS011;3433;48.730;9.108;2022-07-29T14:57:58;10.20;;;7.80;;
6791;SDS011;3433;48.730;9.108;2022-07-29T15:00:45;8.40;;;7.33;;
6791;SDS011;3433;48.730;9.108;2022-07-29T15:03:33;8.70;;;7.90;;
6791;SDS011;3433;48.730;9.108;2022-07-29T15:06:21;8.43;;;7.77;;
6791;SDS011;3433;48.730;9.108;2022-07-29T15:09:08;12.13;;;9.27;;
6791;SDS011;3433;48.730;9.108;2022-07-29T15:11:56;8.07;;;7.30;;
6791;SDS011;3433;48.730;9.108;2022-07-29T15:14:43;10.07;;;9.17;;
6791;SDS011;3433;48.730;9.108;2022-07-29T15:17:31;8.77;;;8.07;;
6791;SDS011;3433;48.730;9.108;2022-07-29T15:20:18;10.30;;;9.30;;
6791;SDS011;3433;48.730;9.108;2022-07-29T15:23:08;9.80;;;7.50;;
6791;SDS011;3433;48.730;9.108;2022-07-29T15:25:55;9.53;;;8.70;;
6791;SDS011;3433;48.730;9.108;2022-07-29T15:28:42;9.80;;;8.80;;
6791;SDS011;3433;48.730;9.108;2022-07-29T15:31:30;9.93;;;8.93;;
6791;SDS011;3433;48.730;9.108;2022-07-29T15:34:17;9.70;;;8.70;;
6791;SDS011;3433;48.730;9.108;2022-07-29T15:37:05;11.37;;;10.27;;
6791;SDS011;3433;48.730;9.108;2022-07-29T15:39:54;11.07;;;8.60;;
6791;SDS011;3433;48.730;9.108;2022-07-29T15:42:42;10.50;;;9.53;;
6791;SDS011;3433;48.730;9.108;2022-07-29T15:45:29;9.47;;;8.50;;
6791;SDS011;3433;48.730;9.108;2022-07-29T15:48:21;8.90;;;8.10;;
6791;SDS011;3433;48.730;9.108;2022-07-29T15:51:08;8.17;;;7.40;;
6791;SDS011;3433;48.730;9.108;2022-07-29T15:53:55;8.47;;;7.60;;
6791;SDS011;3433;48.730;9.108;2022-07-29T15:56:44;8.70;;;8.00;;
6791;SDS011;3433;48.730;9.108;2022-07-29T15:59:31;9.00;;;8.17;;
6791;SDS011;3433;48.730;9.108;2022-07-29T16:02:19;9.37;;;7.60;;
6791;SDS011;3433;48.730;9.108;2022-07-29T16:05:06;8.80;;;8.00;;
6791;SDS011;3433;48.730;9.108;2022-07-29T16:07:54;9.17;;;8.37;;
6791;SDS011;3433;48.730;9.108;2022-07-29T16:10:41;11.57;;;10.47;;
6791;SDS011;3433;48.730;9.108;2022-07-29T16:13:30;9.20;;;8.27;;
6791;SDS011;3433;48.730;9.108;2022-07-29T16:16:17;11.20;;;10.10;;
6791;SDS011;3433;48.730;9.108;2022-07-29T16:22:39;12.13;;;11.00;;
6791;SDS011;3433;48.730;9.108;2022-07-29T16:25:27;11.43;;;10.53;;
6791;SDS011;3433;48.730;9.108;2022-07-29T16:32:19;12.07;;;10.97;;
6791;SDS011;3433;48.730;9.108;2022-07-29T16:35:24;11.03;;;10.03;;
6791;SDS011;3433;48.730;9.108;2022-07-29T16:38:26;11.93;;;10.30;;
6791;SDS011;3433;48.730;9.108;2022-07-29T16:41:57;10.97;;;9.90;;
6791;SDS011;3433;48.730;9.108;2022-07-29T16:44:59;10.87;;;9.87;;
6791;SDS011;3433;48.730;9.108;2022-07-29T16:47:48;10.23;;;9.43;;
6791;SDS011;3433;48.730;9.108;2022-07-29T16:51:04;12.20;;;10.87;;
6791;SDS011;3433;48.730;9.108;2022-07-29T16:53:52;11.80;;;10.70;;
6791;SDS011;3433;48.730;9.108;2022-07-29T16:56:40;10.90;;;10.00;;
6791;SDS011;3433;48.730;9.108;2022-07-29T16:59:27;11.87;;;10.70;;
6791;SDS011;3433;48.730;9.108;2022-07-29T17:02:15;11.93;;;10.83;;
6791;SDS011;3433;48.730;9.108;2022-07-29T17:05:04;12.13;;;10.20;;
6791;SDS011;3433;48.730;9.108;2022-07-29T17:07:53;11.47;;;10.37;;
6791;SDS011;3433;48.730;9.108;2022-07-29T17:10:41;11.33;;;10.23;;
6791;SDS011;3433;48.730;9.108;2022-07-29T17:13:29;11.77;;;10.47;;
6791;SDS011;3433;48.730;9.108;2022-07-29T17:16:16;11.40;;;10.20;;
6791;SDS011;3433;48.730;9.108;2022-07-29T17:19:08;9.93;;;8.93;;
6791;SDS011;3433;48.730;9.108;2022-07-29T17:21:58;11.23;;;9.63;;
6791;SDS011;3433;48.730;9.108;2022-07-29T17:24:45;10.23;;;9.43;;
6791;SDS011;3433;48.730;9.108;2022-07-29T17:27:33;10.20;;;9.30;;
6791;SDS011;3433;48.730;9.108;2022-07-29T17:30:21;10.10;;;9.20;;
6791;SDS011;3433;48.730;9.108;2022-07-29T17:33:08;11.20;;;10.10;;
6791;SDS011;3433;48.730;9.108;2022-07-29T17:35:56;13.20;;;9.63;;
6791;SDS011;3433;48.730;9.108;2022-07-29T17:39:04;9.97;;;9.10;;
6791;SDS011;3433;48.730;9.108;2022-07-29T17:41:52;11.03;;;8.57;;
6791;SDS011;3433;48.730;9.108;2022-07-29T17:44:41;9.90;;;9.07;;
6791;SDS011;3433;48.730;9.108;2022-07-29T17:47:29;10.00;;;9.10;;
6791;SDS011;3433;48.730;9.108;2022-07-29T17:50:16;8.77;;;8.00;;
6791;SDS011;3433;48.730;9.108;2022-07-29T17:53:03;10.30;;;8.47;;
6791;SDS011;3433;48.730;9.108;2022-07-29T17:55:52;9.60;;;8.80;;
6791;SDS011;3433;48.730;9.108;2022-07-29T17:58:40;8.53;;;7.77;;
6791;SDS011;3433;48.730;9.108;2022-07-29T18:01:28;9.23;;;8.43;;
6791;SDS011;3433;48.730;9.108;2022-07-29T18:04:15;9.80;;;8.80;;
6791;SDS011;3433;48.730;9.108;2022-07-29T18:07:05;10.17;;;9.17;;
6791;SDS011;3433;48.730;9.108;2022-07-29T18:09:52;9.20;;;8.30;;
6791;SDS011;3433;48.730;9.108;2022-07-29T18:12:41;7.87;;;7.23;;
6791;SDS011;3433;48.730;9.108;2022-07-29T18:15:29;7.90;;;7.20;;